• Join FlightAware (Why Join?)
  • Login
  • US Flag 
09:02PM EST


 

Airport Tracker/Info


-or-


 

Live Flight TrackerFlight Track Log ✈ N4920G ✈ 13-Aug-2013 ✈ KPHX - KVCV

Flight Track Log - Related Links

Times and Time Zones

All times are in EDT time to prevent confusion due to time zone crossing. See the N4920G flight status page for this flight to view local times or setup timezone preferences in your user account.

Time Position Orientation Groundspeed Altitude Reporting Facility
EDT Latitude Longitude Course Direction KTS MPH feet Rate Location/Type
12:57PM 33.2667 -111.7000 286° West 92 106 2,600  Level Phoenix TRACON
12:58PM 33.2333 -111.7167 203° Southwest 87 100 2,900 240 Climbing Phoenix TRACON
12:59PM 33.2317 -111.7269 259° West 87 100 3,100 420 Climbing Albuquerque Center
01:00PM 33.2164 -111.7481 229° Southwest 85 98 3,600 360 Climbing Albuquerque Center
01:01PM 33.2014 -111.7686 229° Southwest 85 98 3,900 240 Climbing Albuquerque Center
01:02PM 33.1889 -111.7914 237° Southwest 83 96 4,200 300 Climbing Albuquerque Center
01:03PM 33.4936 -112.2584 286° West  Level Estimated
01:03PM 33.1775 -111.8167 242° Southwest 86 99 4,600  Level Albuquerque Center
01:04PM 33.1658 -111.8394 239° Southwest 82 94 5,000 360 Climbing Albuquerque Center
01:05PM 33.1508 -111.8658 236° Southwest 80 92 5,400 240 Climbing Albuquerque Center
01:06PM 33.1372 -111.8858 231° Southwest 78 90 5,600 240 Climbing Albuquerque Center
01:07PM 33.1267 -111.9097 242° Southwest 80 92 5,900 240 Climbing Albuquerque Center
01:08PM 33.1175 -111.9353 247° West 84 97 6,200 180 Climbing Albuquerque Center
01:09PM 33.1303 -111.9667 296° West 103 119 6,300  Climbing Albuquerque Center
01:10PM 33.1406 -112.0003 290° West 107 123 6,300  Level Albuquerque Center
01:11PM 33.1500 -112.0353 288° West 110 127 6,300  Level Albuquerque Center
01:12PM 33.1608 -112.0775 287° West 112 129 6,300  Level Albuquerque Center
01:13PM 33.1689 -112.1131 285° West 111 128 6,300  Level Albuquerque Center
01:14PM 33.1833 -112.1461 298° West 112 129 6,300  Level Albuquerque Center
01:15PM 33.1936 -112.1817 289° West 113 130 6,300 -60 Level Albuquerque Center
01:16PM 33.2044 -112.2158 291° West 111 128 6,200 -60 Descending Albuquerque Center
01:17PM 33.2133 -112.2506 287° West 110 127 6,200 60 Level Albuquerque Center
01:18PM 33.2206 -112.2778 288° West 102 117 6,300 60 Climbing Albuquerque Center
01:18PM 33.2236 -112.2947 282° West 103 119 6,300 60 Level Albuquerque Center
01:19PM 33.2342 -112.3217 295° West 105 121 6,400  Climbing Albuquerque Center
01:20PM 33.2436 -112.3553 289° West 106 122 6,300  Descending Albuquerque Center
01:21PM 33.2550 -112.3892 292° West 109 125 6,400 -60 Climbing Albuquerque Center
01:22PM 33.2644 -112.4289 286° West 113 130 6,200 -60 Descending Albuquerque Center
01:23PM 33.2756 -112.4669 289° West 105 121 6,300 60 Climbing Albuquerque Center
01:24PM 33.2831 -112.4928 289° West 108 124 6,400  Climbing Albuquerque Center
01:25PM 33.2917 -112.5339 284° West 105 121 6,400 -60 Level Albuquerque Center
01:27PM 33.3100 -112.5936 290° West 114 131 6,300 -60 Descending Los Angeles Center
01:28PM 33.3211 -112.6292 291° West 114 131 6,300  Level Los Angeles Center
01:29PM 33.3317 -112.6631 290° West 112 129 6,400  Climbing Los Angeles Center
01:30PM 33.3433 -112.7033 289° West 108 124 6,400  Level Los Angeles Center
01:31PM 33.3556 -112.7389 292° West 113 130 6,400 -60 Level Los Angeles Center
01:32PM 33.3656 -112.7733 289° West 112 129 6,300  Descending Los Angeles Center
01:33PM 33.3733 -112.8061 286° West 106 122 6,400 60 Climbing Los Angeles Center
01:34PM 33.3822 -112.8397 288° West 105 121 6,500  Climbing Los Angeles Center
01:35PM 33.3939 -112.8744 292° West 111 128 6,400 -60 Descending Los Angeles Center
01:37PM 33.4058 -112.9164 289° West 112 129 6,400  Level Los Angeles Center
01:38PM 33.4144 -112.9489 288° West 106 122 6,500 60 Climbing Los Angeles Center
01:39PM 33.4239 -112.9811 289° West 102 117 6,600  Climbing Los Angeles Center
01:40PM 33.4331 -113.0142 288° West 104 120 6,500  Descending Los Angeles Center
01:41PM 33.4486 -113.0439 302° West 106 122 6,600  Climbing Los Angeles Center
01:42PM 33.4597 -113.0844 288° West 106 122 6,600 -60 Level Los Angeles Center
01:43PM 33.4694 -113.1203 288° West 110 127 6,500  Descending Los Angeles Center
01:44PM 33.4792 -113.1536 289° West 109 125 6,600 60 Climbing Los Angeles Center
01:45PM 33.4889 -113.1853 290° West 104 120 6,700  Climbing Los Angeles Center
01:46PM 33.4978 -113.2197 287° West 107 123 6,600 -60 Descending Los Angeles Center
01:47PM 33.5086 -113.2550 290° West 112 129 6,600  Level Los Angeles Center
01:48PM 33.5203 -113.2964 289° West 109 125 6,600  Level Los Angeles Center
01:49PM 33.5292 -113.3294 288° West 106 122 6,700 60 Climbing Los Angeles Center
01:50PM 33.5411 -113.3622 294° West 107 123 6,800  Climbing Los Angeles Center
01:51PM 33.5497 -113.3961 287° West 106 122 6,700 -60 Descending Los Angeles Center
01:52PM 33.5586 -113.4311 287° West 107 123 6,700  Level Los Angeles Center
01:53PM 33.5686 -113.4731 286° West 109 125 6,700 -120 Level Los Angeles Center
01:54PM 33.5786 -113.5072 289° West 109 125 6,500 -120 Descending Los Angeles Center
01:55PM 33.5889 -113.5422 289° West 110 127 6,500  Level Los Angeles Center
01:56PM 33.6006 -113.5842 288° West 111 128 6,500  Level Albuquerque Center
01:57PM 33.6058 -113.6186 280° West 107 123 6,500  Level Albuquerque Center
01:58PM 33.6111 -113.6536 280° West 106 122 6,600 60 Climbing Albuquerque Center
01:59PM 33.6175 -113.6861 283° West 105 121 6,700  Climbing Albuquerque Center
02:00PM 33.6303 -113.7269 291° West 107 123 6,700  Level Albuquerque Center
02:02PM 33.6386 -113.7608 286° West 107 123 6,800  Climbing Albuquerque Center
02:03PM 33.6492 -113.7942 291° West 106 122 6,800  Level Albuquerque Center
02:04PM 33.6608 -113.8292 292° West 110 127 6,800  Level Albuquerque Center
02:05PM 33.6733 -113.8628 294° West 110 127 6,800 -60 Level Albuquerque Center
02:06PM 33.6894 -113.8967 300° West 114 131 6,700 -120 Descending Albuquerque Center
02:07PM 33.7019 -113.9422 288° West 118 136 6,600  Descending Albuquerque Center
02:08PM 33.7100 -113.9775 285° West 113 130 6,700  Climbing Albuquerque Center
02:09PM 33.7147 -114.0172 278° West 114 131 6,700  Level Albuquerque Center
02:10PM 33.7203 -114.0531 281° West 114 131 6,800  Climbing Albuquerque Center
02:11PM 33.7289 -114.0878 287° West 112 129 6,700 -60 Descending Albuquerque Center
02:12PM 33.7389 -114.1239 288° West 113 130 6,700 -120 Level Albuquerque Center
02:14PM 33.7642 -114.2031 291° West 118 136 6,500 -60 Descending Los Angeles Center
02:15PM 33.7772 -114.2397 293° West 118 136 6,600  Climbing Albuquerque Center
02:16PM 33.7900 -114.2756 293° West 118 136 6,600 -60 Level Albuquerque Center
02:17PM 33.7994 -114.3108 288° West 115 132 6,500  Descending Albuquerque Center
02:18PM 33.8069 -114.3450 285° West 107 123 6,600  Climbing Albuquerque Center
02:19PM 33.8153 -114.3919 282° West 113 130 6,600  Level Los Angeles Center
02:20PM 33.8208 -114.4261 281° West 107 123 6,700 120 Climbing Los Angeles Center
02:21PM 33.8278 -114.4600 284° West 104 120 6,900  Climbing Los Angeles Center
02:22PM 33.8350 -114.5028 282° West 109 125 6,800 -120 Descending Los Angeles Center
02:23PM 33.8461 -114.5397 290° West 114 131 6,700 -120 Descending Los Angeles Center
02:24PM 33.8603 -114.5767 295° West 119 137 6,600 -60 Descending Los Angeles Center
02:25PM 33.8772 -114.6092 302° West 117 135 6,600  Level Los Angeles Center
02:26PM 33.8900 -114.6444 294° West 117 135 6,700 -60 Climbing Los Angeles Center
02:27PM 33.9022 -114.6800 293° West 116 133 6,500 -120 Descending Los Angeles Center
02:29PM 33.9150 -114.7236 289° West 117 135 6,500  Level Los Angeles Center
02:30PM 33.9219 -114.7592 283° West 115 132 6,500  Level Los Angeles Center
02:31PM 33.9269 -114.7953 279° West 114 131 6,500  Level Los Angeles Center
02:32PM 33.9364 -114.8300 288° West 111 128 6,500 -60 Level Los Angeles Center
02:33PM 33.9486 -114.8644 293° West 110 127 6,400 -60 Descending Los Angeles Center
02:34PM 33.9622 -114.9086 290° West 113 130 6,400  Level Los Angeles Center
02:35PM 33.9711 -114.9428 287° West 113 130 6,400  Level Los Angeles Center
02:36PM 33.9775 -114.9783 282° West 111 128 6,400  Level Los Angeles Center
02:37PM 33.9817 -115.0133 278° West 110 127 6,400  Level Los Angeles Center
02:38PM 33.9836 -115.0492 274° West 110 127 6,500  Climbing Los Angeles Center
02:39PM 33.9878 -115.0817 279° West 105 121 6,500 60 Level Los Angeles Center
02:40PM 33.9994 -115.1225 289° West 104 120 6,700 60 Climbing Los Angeles Center
02:41PM 34.0064 -115.1575 283° West 106 122 6,700 -60 Level Los Angeles Center
02:42PM 34.0142 -115.1925 285° West 107 123 6,600 -60 Descending Los Angeles Center
02:43PM 34.0242 -115.2289 288° West 109 125 6,600  Level Los Angeles Center
02:44PM 34.0331 -115.2642 287° West 110 127 6,700  Climbing Los Angeles Center
02:45PM 34.0442 -115.3042 289° West 108 124 6,600 -60 Descending Los Angeles Center
02:46PM 34.0564 -115.3392 293° West 109 125 6,600 -60 Level Los Angeles Center
02:47PM 34.0692 -115.3744 294° West 111 128 6,500 -180 Descending Los Angeles Center
02:48PM 34.0764 -115.4114 283° West 113 130 6,300 -120 Descending Los Angeles Center
02:49PM 34.0833 -115.4475 283° West 113 130 6,300  Level Los Angeles Center
02:50PM 34.0922 -115.4811 288° West 110 127 6,300  Level Los Angeles Center
02:51PM 34.1003 -115.5219 283° West 109 125 6,300 60 Level Los Angeles Center
02:52PM 34.0903 -115.5539 249° West 106 122 6,500 180 Climbing Los Angeles Center
02:53PM 34.0853 -115.5847 259° West 99 114 6,700 60 Climbing Los Angeles Center
02:54PM 34.0847 -115.6181 269° West 97 112 6,700  Level Los Angeles Center
02:55PM 34.0842 -115.6531 269° West 99 114 6,800 120 Climbing Los Angeles Center
02:56PM 34.0875 -115.6933 276° West 100 115 7,000  Climbing Los Angeles Center
02:58PM 34.0956 -115.7272 286° West 101 116 6,900 -60 Descending Los Angeles Center
02:59PM 34.1100 -115.7611 297° West 106 122 6,900  Level Los Angeles Center
03:00PM 34.1161 -115.7956 282° West 107 123 7,000 60 Climbing Los Angeles Center
03:01PM 34.1203 -115.8289 279° West 105 121 7,100 60 Climbing Los Angeles Center
03:02PM 34.1233 -115.8642 276° West 104 120 7,200 60 Climbing Los Angeles Center
03:03PM 34.1264 -115.9069 275° West 106 122 7,300 60 Climbing Los Angeles Center
03:04PM 34.1311 -115.9417 279° West 106 122 7,400  Climbing Los Angeles Center
03:05PM 34.1339 -115.9769 275° West 106 122 7,400  Level Los Angeles Center
03:06PM 34.1358 -116.0111 274° West 106 122 7,400  Level Los Angeles Center